Latest Weather Observations for Laverton

IDW60801

Issued at 7:34 pm WST Tuesday 21 February 2017 (issued every 30 minutes, with the page automatically refreshed every 10 minutes)

About weather observations | Map of weather stations | Latest weather observations for WA | Other Formats
Station Details ID: 012305 Name: LAVERTON AERO Lat: -28.61 Lon: 122.42 Height: 464.3 m
Data from the previous 72 hours. | See also: Recent months at Laverton
Date/Time
WST
Temp
°C
App
Temp
°C
Dew
Point
°C
Rel
Hum
%
Delta-T
°C
Wind Press
QNH
hPa
Press
MSL
hPa
Rain since
9am
mm
Dir  Spd
km/h
Gust
km/h
Spd
kts
Gust
kts
21/07:30pm 26.6 22.0 6.6 28 10.7 SW 20 33 11 18 1012.8 1009.6 0.0
21/07:00pm 27.6 21.8 4.6 23 12.0 SW 24 33 13 18 1012.1 1008.9 0.0
21/06:30pm 28.3 22.0 3.9 21 12.6 WSW 26 37 14 20 1011.4 1008.3 0.0
21/06:00pm 29.2 22.3 2.5 18 13.6 WSW 28 41 15 22 1010.9 1007.7 0.0
21/05:30pm 30.2 22.5 2.5 17 14.1 SW 32 41 17 22 1010.4 1007.2 0.0
21/05:00pm 30.5 24.2 5.7 21 13.4 WSW 28 39 15 21 1010.1 1006.9 0.0
21/04:30pm 30.7 23.5 5.2 20 13.6 W 32 44 17 24 1009.8 1006.6 0.0
21/04:00pm 31.4 22.2 3.4 17 14.6 W 41 56 22 30 1009.8 1006.6 0.0
21/03:30pm 30.7 26.0 15.9 40 9.4 W 35 48 19 26 1009.4 1006.3 0.0
21/03:00pm 31.7 27.7 17.6 43 9.2 WSW 35 54 19 29 1009.3 1006.2 0.0
21/02:44pm 30.6 26.5 17.3 45 8.6 W 35 54 19 29 1009.2 1006.1 0.0
21/02:30pm 31.3 27.7 17.6 44 8.9 W 33 50 18 27 1009.1 1006.0 0.0
21/02:00pm 30.9 27.8 18.3 47 8.3 W 32 44 17 24 1009.5 1006.4 0.0
21/01:57pm 30.8 27.6 18.2 47 8.2 W 32 50 17 27 1009.5 1006.4 0.0
21/01:30pm 31.3 28.7 18.6 46 8.4 W 30 46 16 25 1009.7 1006.5 0.0
21/01:28pm 30.9 28.5 18.3 47 8.3 W 28 46 15 25 1009.7 1006.5 0.0
21/01:00pm 30.6 27.3 18.3 47 8.1 W 33 44 18 24 1010.0 1006.8 0.0
21/12:32pm 30.6 28.0 18.7 49 7.8 WSW 30 48 16 26 1010.4 1007.2 0.0
21/12:30pm 30.0 27.1 18.8 51 7.4 WSW 32 48 17 26 1010.4 1007.2 0.0
21/12:00pm 29.6 27.1 18.1 50 7.5 WSW 28 39 15 21 1010.4 1007.2 0.0
21/11:30am 30.0 27.8 17.8 48 7.9 W 26 35 14 19 1010.6 1007.4 0.0
21/11:00am 30.2 26.8 17.6 46 8.2 W 32 43 17 23 1010.9 1007.7 0.0
21/10:30am 31.1 28.7 17.4 44 8.9 W 26 37 14 20 1010.6 1007.4 0.0
21/10:00am 29.5 27.1 17.3 47 7.9 WNW 26 35 14 19 1010.9 1007.7 0.0
21/09:30am 29.3 26.8 17.2 48 7.8 WNW 26 33 14 18 1011.0 1007.8 0.0
21/09:00am 28.9 27.7 17.1 49 7.6 NW 19 24 10 13 1011.0 1007.8 0.0
21/08:30am 27.1 26.8 17.3 55 6.3 NNW 15 20 8 11 1011.0 1007.8 0.0
21/08:00am 25.9 26.4 17.5 59 5.4 NNW 11 17 6 9 1011.0 1007.8 0.0
21/07:30am 24.5 25.0 17.5 65 4.4 N 11 15 6 8 1011.1 1008.0 0.0
21/07:00am 23.5 24.8 17.5 69 3.8 N 7 9 4 5 1011.3 1008.2 0.0
21/06:30am 23.2 23.8 16.7 67 4.1 N 9 11 5 6 1011.1 1008.0 0.0
21/06:00am 23.0 23.4 16.3 66 4.2 N 9 13 5 7 1011.2 1008.1 0.0
21/05:30am 22.9 23.6 16.2 66 4.1 NNE 7 9 4 5 1010.9 1007.7 0.0
21/05:00am 23.2 25.0 15.5 62 4.7 CALM 0 0 0 0 1010.9 1007.7 0.0
21/04:30am 23.2 25.0 15.5 62 4.7 CALM 0 0 0 0 1011.0 1007.8 0.0
21/04:00am 23.2 24.9 15.3 61 4.8 CALM 0 0 0 0 1010.8 1007.6 0.0
21/03:30am 23.1 24.7 14.9 60 5.0 CALM 0 0 0 0 1010.7 1007.5 0.0
21/03:00am 25.0 25.8 14.8 53 6.2 S 4 6 2 3 1011.0 1007.8 0.0
21/02:30am 25.2 25.7 14.0 49 6.7 S 4 7 2 4 1011.3 1008.2 0.0
21/02:00am 24.6 22.8 10.8 42 7.9 WSW 11 15 6 8 1011.6 1008.5 0.0
21/01:30am 25.6 22.5 7.2 31 9.9 W 13 19 7 10 1011.6 1008.5 0.0
21/01:00am 27.1 22.4 6.0 26 11.2 NW 20 39 11 21 1011.5 1008.4 0.0
21/12:30am 26.7 22.5 5.6 26 11.1 NNE 17 20 9 11 1010.6 1007.4 0.0
21/12:00am 26.8 22.2 5.7 26 11.2 NNE 19 26 10 14 1010.8 1007.6 0.0
 
Date/Time
WST
Temp
°C
App
Temp
°C
Dew
Point
°C
Rel
Hum
%
Delta-T
°C
Wind Press
QNH
hPa
Press
MSL
hPa
Rain since
9am
mm
Dir  Spd
km/h
Gust
km/h
Spd
kts
Gust
kts
20/11:30pm 26.6 22.5 6.1 27 10.9 NNE 17 19 9 10 1011.2 1008.1 0.0
20/11:00pm 26.7 22.7 6.7 28 10.8 NNE 17 20 9 11 1011.4 1008.3 0.0
20/10:30pm 26.8 23.7 7.3 29 10.6 NNE 13 17 7 9 1011.6 1008.5 0.0
20/10:00pm 26.5 24.0 8.0 31 10.2 NE 11 15 6 8 1011.8 1008.7 0.0
20/09:30pm 27.5 24.2 7.9 29 10.8 NNE 15 17 8 9 1012.1 1008.9 0.0
20/09:00pm 27.8 24.4 7.6 28 11.1 NNE 15 17 8 9 1012.0 1008.8 0.0
20/08:30pm 26.8 24.7 9.6 34 9.7 NE 11 13 6 7 1011.8 1008.7 0.0
20/08:00pm 27.8 26.0 9.6 32 10.3 ENE 9 11 5 6 1011.7 1008.6 0.0
20/07:30pm 29.4 27.0 8.5 27 11.7 ENE 11 13 6 7 1011.5 1008.4 0.0
20/07:00pm 30.3 28.2 8.1 25 12.4 ENE 9 11 5 6 1011.1 1008.0 0.0
20/06:30pm 31.6 29.8 7.3 22 13.5 N 6 7 3 4 1010.7 1007.5 0.0
20/06:00pm 32.9 30.6 4.6 17 15.2 NNW 6 7 3 4 1010.6 1007.4 0.0
20/05:30pm 33.2 31.5 5.7 18 15.0 NNE 4 11 2 6 1010.5 1007.3 0.0
20/05:00pm 33.9 31.2 5.4 17 15.6 NNW 9 15 5 8 1010.6 1007.4 0.0
20/04:30pm 34.0 31.5 4.6 16 15.9 WNW 7 11 4 6 1010.7 1007.5 0.0
20/04:00pm 33.5 30.5 5.9 18 15.2 N 11 17 6 9 1011.0 1007.8 0.0
20/03:30pm 34.0 31.1 6.3 18 15.4 NNW 11 17 6 9 1011.2 1008.1 0.0
20/03:00pm 33.6 31.2 5.2 17 15.5 SE 7 15 4 8 1011.4 1008.3 0.0
20/02:30pm 33.5 31.2 5.9 18 15.2 NNW 7 17 4 9 1012.0 1008.8 0.0
20/02:00pm 33.4 31.1 5.9 18 15.1 WSW 7 13 4 7 1012.3 1009.1 0.0
20/01:30pm 32.0 29.4 6.2 20 14.1 NNW 9 17 5 9 1012.8 1009.6 0.0
20/01:00pm 32.3 30.4 6.5 20 14.2 SW 6 11 3 6 1013.1 1010.0 0.0
20/12:30pm 31.7 29.0 7.4 22 13.6 NE 11 22 6 12 1013.6 1010.5 0.0
20/12:00pm 30.7 27.8 6.6 22 13.2 NNE 11 20 6 11 1014.3 1011.1 0.0
20/11:30am 30.7 27.8 6.6 22 13.2 NE 11 17 6 9 1014.8 1011.6 0.0
20/11:00am 29.8 26.9 6.5 23 12.7 NE 11 17 6 9 1015.2 1012.1 0.0
20/10:30am 29.4 26.2 6.7 24 12.4 N 13 20 7 11 1015.7 1012.6 0.0
20/10:00am 28.7 24.5 7.3 26 11.7 NNE 19 28 10 15 1016.1 1013.0 0.0
20/09:30am 27.2 23.7 7.1 28 10.9 NNE 15 20 8 11 1016.6 1013.4 0.0
20/09:00am 26.3 21.9 6.4 28 10.6 NNE 19 24 10 13 1016.9 1013.7 0.0
20/08:30am 25.2 19.9 6.9 31 9.8 NNE 24 30 13 16 1016.8 1013.6 0.0
20/08:00am 24.3 19.4 7.0 33 9.2 N 22 30 12 16 1017.0 1013.9 0.0
20/07:30am 23.1 18.0 6.0 33 8.9 NNE 22 30 12 16 1016.9 1013.7 0.0
20/07:00am 22.1 16.6 5.9 35 8.3 NNE 24 35 13 19 1016.9 1013.7 0.0
20/06:30am 20.8 16.4 6.4 39 7.4 NE 19 28 10 15 1016.6 1013.4 0.0
20/06:00am 19.1 15.8 6.6 44 6.4 NE 13 19 7 10 1016.8 1013.6 0.0
20/05:30am 19.1 15.8 6.2 43 6.6 NE 13 17 7 9 1016.5 1013.3 0.0
20/05:00am 19.4 14.8 5.8 41 6.9 NE 19 24 10 13 1015.9 1012.8 0.0
20/04:30am 19.7 15.5 5.7 40 7.1 NE 17 24 9 13 1015.9 1012.8 0.0
20/04:00am 19.7 15.6 6.1 41 6.9 NE 17 22 9 12 1016.0 1012.9 0.0
20/03:30am 20.3 15.7 5.5 38 7.5 NE 19 26 10 14 1016.0 1012.9 0.0
20/03:00am 20.0 16.3 6.4 41 7.0 NE 15 19 8 10 1016.1 1013.0 0.0
20/02:30am 19.8 16.3 7.2 44 6.6 ENE 15 19 8 10 1016.2 1013.1 0.0
20/02:00am 20.0 16.2 7.4 44 6.6 ENE 17 19 9 10 1016.1 1013.0 0.0
20/01:30am 20.6 17.1 7.2 42 7.0 NE 15 19 8 10 1016.6 1013.4 0.0
20/01:00am 20.9 17.1 7.5 42 7.1 ENE 17 19 9 10 1016.7 1013.5 0.0
20/12:30am 20.9 17.6 8.2 44 6.8 ENE 15 17 8 9 1016.9 1013.7 0.0
20/12:00am 21.0 18.6 8.6 45 6.7 E 11 13 6 7 1017.0 1013.9 0.0
 
Date/Time
WST
Temp
°C
App
Temp
°C
Dew
Point
°C
Rel
Hum
%
Delta-T
°C
Wind Press
QNH
hPa
Press
MSL
hPa
Rain since
9am
mm
Dir  Spd
km/h
Gust
km/h
Spd
kts
Gust
kts
19/11:30pm 21.9 19.0 8.1 41 7.4 E 13 15 7 8 1017.0 1013.9 0.0
19/11:00pm 22.5 19.8 7.5 38 8.0 E 11 15 6 8 1017.1 1014.0 0.0
19/10:30pm 23.1 20.0 7.2 36 8.4 E 13 17 7 9 1017.0 1013.9 0.0
19/10:00pm 23.7 20.2 7.3 35 8.7 E 15 17 8 9 1017.1 1014.0 0.0
19/09:30pm 23.9 21.3 7.9 36 8.6 E 11 13 6 7 1017.3 1014.2 0.0
19/09:00pm 24.9 21.4 7.1 32 9.5 E 15 17 8 9 1017.3 1014.2 0.0
19/08:30pm 25.6 22.1 7.2 31 9.9 E 15 19 8 10 1017.3 1014.2 0.0
19/08:00pm 26.0 23.0 7.6 31 10.0 E 13 15 7 8 1017.1 1014.0 0.0
19/07:30pm 26.8 23.8 7.8 30 10.4 E 13 17 7 9 1016.9 1013.7 0.0
19/07:00pm 27.5 24.5 7.9 29 10.8 E 13 15 7 8 1016.6 1013.4 0.0
19/06:30pm 28.5 25.5 7.7 27 11.5 E 13 17 7 9 1016.2 1013.1 0.0
19/06:00pm 29.4 25.9 7.3 25 12.2 E 15 20 8 11 1016.0 1012.9 0.0
19/05:30pm 30.0 26.9 7.2 24 12.6 ENE 13 20 7 11 1015.9 1012.8 0.0
19/05:00pm 29.6 27.3 7.5 25 12.2 ENE 9 17 5 9 1015.9 1012.8 0.0
19/04:30pm 30.1 28.1 8.5 26 12.2 NE 9 17 5 9 1015.9 1012.8 0.0
19/04:00pm 29.5 26.0 7.4 25 12.2 E 15 24 8 13 1016.0 1012.9 0.0
19/03:30pm 29.7 27.1 7.6 25 12.2 ESE 11 20 6 11 1016.1 1013.0 0.0
19/03:00pm 29.7 26.7 7.6 25 12.2 E 13 24 7 13 1016.5 1013.3 0.0
19/02:30pm 30.0 27.9 8.4 26 12.1 NE 9 20 5 11 1016.9 1013.7 0.0
19/02:00pm 29.6 27.4 9.2 28 11.6 ENE 11 20 6 11 1017.3 1014.2 0.0
19/01:30pm 28.8 26.8 8.5 28 11.4 E 9 20 5 11 1017.7 1014.6 0.0
19/01:00pm 27.5 24.7 8.4 30 10.6 ENE 13 24 7 13 1018.2 1015.1 0.0
19/12:30pm 27.8 24.9 8.1 29 10.9 ESE 13 28 7 15 1018.5 1015.4 0.0
19/12:00pm 26.9 23.3 8.4 31 10.2 ESE 17 32 9 17 1019.0 1015.9 0.0
19/11:30am 26.7 22.8 8.6 32 10.0 ENE 19 26 10 14 1019.5 1016.4 0.0
19/11:00am 25.9 22.5 9.3 35 9.3 ENE 17 28 9 15 1019.9 1016.8 0.0
19/10:30am 25.0 21.2 8.9 36 8.9 ENE 19 28 10 15 1020.4 1017.3 0.0
19/10:00am 24.3 20.3 9.1 38 8.4 ENE 20 28 11 15 1020.8 1017.8 0.0
19/09:30am 23.5 19.5 9.1 40 7.9 ENE 20 28 11 15 1021.3 1018.2 0.0
19/09:00am 22.3 17.9 8.8 42 7.3 ENE 22 30 12 16 1021.6 1018.5 0.0
19/08:30am 20.9 16.1 8.9 46 6.5 ENE 24 32 13 17 1021.6 1018.5 0.0
19/08:00am 19.6 14.7 8.3 48 6.0 ENE 24 33 13 18 1021.7 1018.6 0.0
19/07:30am 18.9 13.6 8.3 50 5.6 E 26 33 14 18 1021.9 1018.8 0.0
19/07:00am 18.0 12.3 8.3 53 5.1 ENE 28 37 15 20 1021.7 1018.6 0.0
19/06:30am 17.3 12.3 7.9 54 4.9 E 24 33 13 18 1021.5 1018.4 0.0
19/06:00am 16.8 12.2 8.0 56 4.5 E 22 30 12 16 1021.6 1018.5 0.0
19/05:30am 16.8 12.2 8.0 56 4.6 E 22 28 12 15 1021.1 1018.0 0.0
19/05:00am 17.2 12.2 8.1 55 4.7 E 24 32 13 17 1020.9 1017.9 0.0
19/04:30am 17.6 13.3 7.9 53 5.0 E 20 28 11 15 1020.7 1017.6 0.0
19/04:00am 18.1 12.2 7.5 50 5.5 E 28 35 15 19 1020.5 1017.4 0.0
19/03:30am 18.2 13.8 7.6 50 5.5 E 20 28 11 15 1020.5 1017.4 0.0
19/03:00am 18.7 13.6 7.5 48 5.8 E 24 28 13 15 1020.3 1017.2 0.0
19/02:30am 19.2 14.4 7.3 46 6.2 E 22 28 12 15 1020.4 1017.3 0.0
19/02:00am 19.5 14.2 6.9 44 6.5 E 24 30 13 16 1020.3 1017.2 0.0
19/01:30am 19.9 14.6 6.6 42 6.8 E 24 32 13 17 1020.4 1017.3 0.0
19/01:00am 20.3 15.2 5.9 39 7.3 E 22 28 12 15 1020.6 1017.5 0.0
19/12:30am 20.6 14.7 5.8 38 7.5 E 26 33 14 18 1020.6 1017.5 0.0
19/12:00am 20.7 16.5 5.9 38 7.5 E 17 24 9 13 1020.9 1017.9 0.0
 
Date/Time
WST
Temp
°C
App
Temp
°C
Dew
Point
°C
Rel
Hum
%
Delta-T
°C
Wind Press
QNH
hPa
Press
MSL
hPa
Rain since
9am
mm
Dir  Spd
km/h
Gust
km/h
Spd
kts
Gust
kts
18/11:30pm 21.3 17.2 6.0 37 7.9 E 17 20 9 11 1021.2 1018.1 0.0
18/11:00pm 21.9 17.1 5.8 35 8.2 ESE 20 26 11 14 1021.3 1018.2 0.0
18/10:30pm 22.6 17.8 5.5 33 8.8 ESE 20 30 11 16 1021.4 1018.3 0.0
18/10:00pm 23.1 18.5 5.5 32 9.0 ESE 19 24 10 13 1021.6 1018.5 0.0
18/09:30pm 23.6 18.9 6.0 32 9.2 ESE 20 26 11 14 1021.4 1018.3 0.0
18/09:00pm 24.2 19.2 6.5 32 9.3 ESE 22 30 12 16 1021.1 1018.0 0.0
18/08:30pm 24.8 19.5 7.0 32 9.5 ESE 24 32 13 17 1020.9 1017.9 0.0
18/08:00pm 25.4 20.6 8.8 35 9.2 ESE 24 30 13 16 1020.5 1017.4 0.0

Other Formats:

Comma delimited format used in spreadsheet applications
http://www.bom.gov.au/fwo/IDW60801/IDW60801.94449.axf

JavaScript Object Notation format (JSON) in row-major order
http://www.bom.gov.au/fwo/IDW60801/IDW60801.94449.json